sensor_id;sensor_type;location;lat;lon;timestamp;pressure;altitude;pressure_sealevel;temperature;humidity
45525;BME280;31437;58.350;13.828;2023-03-22T00:20:09;100607.75;;;4.37;100.00
45525;BME280;31437;58.350;13.828;2023-03-22T02:27:14;100603.28;;;4.81;100.00
45525;BME280;31437;58.350;13.828;2023-03-22T02:29:47;100594.56;;;4.82;100.00
45525;BME280;31437;58.350;13.828;2023-03-22T03:45:56;100530.34;;;4.87;100.00
45525;BME280;31437;58.350;13.828;2023-03-22T03:48:23;100532.91;;;4.89;100.00
45525;BME280;31437;58.350;13.828;2023-03-22T03:50:51;100530.31;;;4.89;100.00
45525;BME280;31437;58.350;13.828;2023-03-22T03:58:27;100525.03;;;4.92;100.00
45525;BME280;31437;58.350;13.828;2023-03-22T04:00:54;100521.53;;;4.93;100.00
45525;BME280;31437;58.350;13.828;2023-03-22T04:03:19;100518.03;;;4.94;100.00
45525;BME280;31437;58.350;13.828;2023-03-22T04:05:46;100519.69;;;4.96;100.00
45525;BME280;31437;58.350;13.828;2023-03-22T04:08:12;100527.47;;;4.98;100.00
45525;BME280;31437;58.350;13.828;2023-03-22T04:10:37;100523.97;;;4.99;100.00
45525;BME280;31437;58.350;13.828;2023-03-22T04:13:03;100528.28;;;5.00;100.00
45525;BME280;31437;58.350;13.828;2023-03-22T04:15:28;100524.72;;;5.03;100.00
45525;BME280;31437;58.350;13.828;2023-03-22T04:17:53;100522.09;;;5.04;100.00
45525;BME280;31437;58.350;13.828;2023-03-22T04:20:19;100522.06;;;5.06;100.00
45525;BME280;31437;58.350;13.828;2023-03-22T04:22:45;100522.06;;;5.06;100.00
45525;BME280;31437;58.350;13.828;2023-03-22T04:25:11;100518.53;;;5.08;100.00
45525;BME280;31437;58.350;13.828;2023-03-22T04:27:40;100527.16;;;5.09;100.00
45525;BME280;31437;58.350;13.828;2023-03-22T04:30:07;100528.00;;;5.11;100.00
45525;BME280;31437;58.350;13.828;2023-03-22T04:32:35;100522.78;;;5.12;100.00
45525;BME280;31437;58.350;13.828;2023-03-22T04:35:01;100515.81;;;5.13;100.00
45525;BME280;31437;58.350;13.828;2023-03-22T04:37:26;100499.69;;;5.00;100.00
45525;BME280;31437;58.350;13.828;2023-03-22T04:39:52;100522.69;;;5.15;100.00
45525;BME280;31437;58.350;13.828;2023-03-22T04:42:17;100534.78;;;5.16;100.00
45525;BME280;31437;58.350;13.828;2023-03-22T04:44:43;100540.84;;;5.17;100.00
45525;BME280;31437;58.350;13.828;2023-03-22T04:47:08;100537.38;;;5.18;100.00
45525;BME280;31437;58.350;13.828;2023-03-22T04:49:34;100537.31;;;5.19;100.00
45525;BME280;31437;58.350;13.828;2023-03-22T04:51:59;100524.31;;;5.19;100.00
45525;BME280;31437;58.350;13.828;2023-03-22T04:54:24;100523.41;;;5.20;100.00
45525;BME280;31437;58.350;13.828;2023-03-22T04:56:50;100519.91;;;5.21;100.00
45525;BME280;31437;58.350;13.828;2023-03-22T04:59:15;100524.22;;;5.22;100.00
45525;BME280;31437;58.350;13.828;2023-03-22T05:01:48;100523.34;;;5.23;100.00
45525;BME280;31437;58.350;13.828;2023-03-22T05:04:13;100525.03;;;5.24;100.00
45525;BME280;31437;58.350;13.828;2023-03-22T05:06:39;100518.09;;;5.25;100.00
45525;BME280;31437;58.350;13.828;2023-03-22T05:09:05;100518.94;;;5.26;100.00
45525;BME280;31437;58.350;13.828;2023-03-22T05:11:31;100517.19;;;5.26;100.00
45525;BME280;31437;58.350;13.828;2023-03-22T05:13:56;100501.53;;;5.28;100.00
45525;BME280;31437;58.350;13.828;2023-03-22T05:16:22;100512.78;;;5.28;100.00
45525;BME280;31437;58.350;13.828;2023-03-22T05:18:48;100506.69;;;5.29;100.00
45525;BME280;31437;58.350;13.828;2023-03-22T05:21:18;100508.41;;;5.30;100.00
45525;BME280;31437;58.350;13.828;2023-03-22T05:23:46;100509.25;;;5.31;100.00
45525;BME280;31437;58.350;13.828;2023-03-22T05:26:12;100511.88;;;5.31;100.00
45525;BME280;31437;58.350;13.828;2023-03-22T05:28:39;100501.47;;;5.31;100.00
45525;BME280;31437;58.350;13.828;2023-03-22T05:31:05;100506.59;;;5.32;100.00
45525;BME280;31437;58.350;13.828;2023-03-22T05:33:32;100519.59;;;5.34;100.00
45525;BME280;31437;58.350;13.828;2023-03-22T05:35:58;100509.13;;;5.35;100.00
45525;BME280;31437;58.350;13.828;2023-03-22T05:38:24;100510.88;;;5.35;100.00
45525;BME280;31437;58.350;13.828;2023-03-22T05:40:49;100505.59;;;5.38;100.00
45525;BME280;31437;58.350;13.828;2023-03-22T05:43:15;100509.84;;;5.40;100.00
45525;BME280;31437;58.350;13.828;2023-03-22T05:45:40;100509.84;;;5.40;100.00
45525;BME280;31437;58.350;13.828;2023-03-22T05:48:05;100503.72;;;5.43;100.00
45525;BME280;31437;58.350;13.828;2023-03-22T05:50:31;100507.94;;;5.47;100.00
45525;BME280;31437;58.350;13.828;2023-03-22T05:52:56;100511.41;;;5.47;100.00
45525;BME280;31437;58.350;13.828;2023-03-22T05:55:22;100509.56;;;5.51;100.00
45525;BME280;31437;58.350;13.828;2023-03-22T05:57:47;100499.09;;;5.53;100.00
45525;BME280;31437;58.350;13.828;2023-03-22T06:00:16;100506.03;;;5.54;100.00
45525;BME280;31437;58.350;13.828;2023-03-22T06:02:42;100496.47;;;5.54;100.00
45525;BME280;31437;58.350;13.828;2023-03-22T06:05:08;100498.97;;;5.57;100.00
45525;BME280;31437;58.350;13.828;2023-03-22T06:07:37;100497.19;;;5.59;100.00
45525;BME280;31437;58.350;13.828;2023-03-22T06:10:04;100492.78;;;5.61;100.00
45525;BME280;31437;58.350;13.828;2023-03-22T06:12:30;100481.50;;;5.62;100.00
45525;BME280;31437;58.350;13.828;2023-03-22T06:14:55;100486.53;;;5.67;100.00
45525;BME280;31437;58.350;13.828;2023-03-22T06:17:21;100483.94;;;5.67;100.00
45525;BME280;31437;58.350;13.828;2023-03-22T06:19:48;100473.50;;;5.68;100.00
45525;BME280;31437;58.350;13.828;2023-03-22T06:22:13;100474.28;;;5.70;100.00
45525;BME280;31437;58.350;13.828;2023-03-22T06:24:38;100469.06;;;5.70;100.00
45525;BME280;31437;58.350;13.828;2023-03-22T06:27:06;100457.78;;;5.72;100.00
45525;BME280;31437;58.350;13.828;2023-03-22T06:29:34;100463.00;;;5.72;100.00
45525;BME280;31437;58.350;13.828;2023-03-22T06:31:59;100458.63;;;5.72;100.00
45525;BME280;31437;58.350;13.828;2023-03-22T06:34:24;100454.28;;;5.73;100.00
45525;BME280;31437;58.350;13.828;2023-03-22T06:36:50;100444.78;;;5.72;100.00
45525;BME280;31437;58.350;13.828;2023-03-22T06:39:15;100432.56;;;5.74;100.00
45525;BME280;31437;58.350;13.828;2023-03-22T06:41:41;100424.75;;;5.74;100.00
45525;BME280;31437;58.350;13.828;2023-03-22T06:44:06;100428.16;;;5.76;100.00
45525;BME280;31437;58.350;13.828;2023-03-22T06:46:32;100415.94;;;5.78;100.00
45525;BME280;31437;58.350;13.828;2023-03-22T06:48:57;100402.88;;;5.79;100.00
45525;BME280;31437;58.350;13.828;2023-03-22T06:51:22;100408.84;;;5.83;100.00
45525;BME280;31437;58.350;13.828;2023-03-22T06:53:48;100396.63;;;5.85;100.00
45525;BME280;31437;58.350;13.828;2023-03-22T06:56:13;100389.59;;;5.88;100.00
45525;BME280;31437;58.350;13.828;2023-03-22T06:58:38;100384.28;;;5.91;100.00
45525;BME280;31437;58.350;13.828;2023-03-22T07:01:04;100376.41;;;5.95;100.00
45525;BME280;31437;58.350;13.828;2023-03-22T07:03:29;100376.34;;;5.96;100.00
45525;BME280;31437;58.350;13.828;2023-03-22T07:06:04;100364.94;;;6.00;100.00
45525;BME280;31437;58.350;13.828;2023-03-22T07:08:30;100365.63;;;6.05;100.00
45525;BME280;31437;58.350;13.828;2023-03-22T07:10:56;100361.13;;;6.10;100.00
45525;BME280;31437;58.350;13.828;2023-03-22T07:13:21;100355.81;;;6.13;100.00
45525;BME280;31437;58.350;13.828;2023-03-22T07:15:47;100351.41;;;6.16;100.00
45525;BME280;31437;58.350;13.828;2023-03-22T07:18:12;100341.78;;;6.18;100.00
45525;BME280;31437;58.350;13.828;2023-03-22T07:20:37;100341.69;;;6.21;100.00
45525;BME280;31437;58.350;13.828;2023-03-22T07:23:05;100325.19;;;6.20;100.00
45525;BME280;31437;58.350;13.828;2023-03-22T07:25:30;100317.34;;;6.22;100.00
45525;BME280;31437;58.350;13.828;2023-03-22T07:27:56;100304.31;;;6.22;100.00
45525;BME280;31437;58.350;13.828;2023-03-22T07:30:21;100299.91;;;6.24;100.00
45525;BME280;31437;58.350;13.828;2023-03-22T07:32:46;100287.66;;;6.26;100.00
45525;BME280;31437;58.350;13.828;2023-03-22T07:35:11;100260.25;;;6.16;100.00
45525;BME280;31437;58.350;13.828;2023-03-22T07:37:37;100271.16;;;6.27;100.00
45525;BME280;31437;58.350;13.828;2023-03-22T07:40:02;100260.63;;;6.30;100.00
45525;BME280;31437;58.350;13.828;2023-03-22T07:42:29;100248.47;;;6.29;100.00
45525;BME280;31437;58.350;13.828;2023-03-22T07:44:55;100237.09;;;6.31;100.00
45525;BME280;31437;58.350;13.828;2023-03-22T07:47:20;100233.50;;;6.35;100.00
45525;BME280;31437;58.350;13.828;2023-03-22T07:49:46;100223.81;;;6.39;100.00
45525;BME280;31437;58.350;13.828;2023-03-22T07:52:11;100215.88;;;6.42;100.00
45525;BME280;31437;58.350;13.828;2023-03-22T07:54:36;100210.47;;;6.47;100.00
45525;BME280;31437;58.350;13.828;2023-03-22T07:57:02;100206.03;;;6.50;100.00
45525;BME280;31437;58.350;13.828;2023-03-22T07:59:27;100191.97;;;6.54;100.00
45525;BME280;31437;58.350;13.828;2023-03-22T08:01:53;100187.31;;;6.63;100.00
45525;BME280;31437;58.350;13.828;2023-03-22T08:04:18;100175.84;;;6.67;100.00
45525;BME280;31437;58.350;13.828;2023-03-22T08:06:46;100160.09;;;6.70;100.00
45525;BME280;31437;58.350;13.828;2023-03-22T08:09:11;100148.72;;;6.72;100.00
45525;BME280;31437;58.350;13.828;2023-03-22T08:11:37;100125.97;;;6.76;100.00
45525;BME280;31437;58.350;13.828;2023-03-22T08:14:02;100130.28;;;6.77;100.00
45525;BME280;31437;58.350;13.828;2023-03-22T08:16:28;100113.91;;;6.73;100.00
45525;BME280;31437;58.350;13.828;2023-03-22T08:18:53;100095.59;;;6.75;100.00
45525;BME280;31437;58.350;13.828;2023-03-22T08:21:18;100076.56;;;6.73;100.00
45525;BME280;31437;58.350;13.828;2023-03-22T08:23:44;100074.06;;;6.70;100.00
45525;BME280;31437;58.350;13.828;2023-03-22T08:26:09;100060.19;;;6.69;100.00
45525;BME280;31437;58.350;13.828;2023-03-22T08:28:35;100050.56;;;6.71;100.00
45525;BME280;31437;58.350;13.828;2023-03-22T08:31:01;100043.50;;;6.73;100.00
45525;BME280;31437;58.350;13.828;2023-03-22T08:33:26;100042.63;;;6.74;100.00
45525;BME280;31437;58.350;13.828;2023-03-22T08:36:03;100023.44;;;6.75;100.00
45525;BME280;31437;58.350;13.828;2023-03-22T08:38:28;100016.28;;;6.80;100.00
45525;BME280;31437;58.350;13.828;2023-03-22T08:40:53;100025.66;;;6.85;100.00
45525;BME280;31437;58.350;13.828;2023-03-22T08:43:20;100011.88;;;6.82;100.00
45525;BME280;31437;58.350;13.828;2023-03-22T08:45:45;99996.00;;;6.87;100.00
45525;BME280;31437;58.350;13.828;2023-03-22T08:48:11;99993.81;;;6.98;100.00
45525;BME280;31437;58.350;13.828;2023-03-22T08:50:36;99983.78;;;7.10;100.00
45525;BME280;31437;58.350;13.828;2023-03-22T08:53:03;99980.63;;;7.22;100.00
45525;BME280;31437;58.350;13.828;2023-03-22T08:55:29;99981.00;;;7.33;100.00
45525;BME280;31437;58.350;13.828;2023-03-22T08:57:55;99971.22;;;7.38;100.00
45525;BME280;31437;58.350;13.828;2023-03-22T09:00:22;99954.56;;;7.41;100.00
45525;BME280;31437;58.350;13.828;2023-03-22T09:02:49;99947.59;;;7.41;100.00
45525;BME280;31437;58.350;13.828;2023-03-22T09:05:14;99942.94;;;7.48;100.00
45525;BME280;31437;58.350;13.828;2023-03-22T09:07:40;99950.50;;;7.54;100.00
45525;BME280;31437;58.350;13.828;2023-03-22T09:10:05;99933.16;;;7.53;100.00
45525;BME280;31437;58.350;13.828;2023-03-22T09:12:31;99925.19;;;7.56;100.00
45525;BME280;31437;58.350;13.828;2023-03-22T09:14:56;99917.13;;;7.61;100.00
45525;BME280;31437;58.350;13.828;2023-03-22T09:17:22;99910.28;;;7.58;100.00
45525;BME280;31437;58.350;13.828;2023-03-22T09:19:47;99893.13;;;7.53;100.00
45525;BME280;31437;58.350;13.828;2023-03-22T09:22:13;99878.38;;;7.51;100.00
45525;BME280;31437;58.350;13.828;2023-03-22T09:24:38;99876.75;;;7.49;100.00
45525;BME280;31437;58.350;13.828;2023-03-22T09:27:03;99856.81;;;7.48;100.00
45525;BME280;31437;58.350;13.828;2023-03-22T09:29:29;99849.69;;;7.51;100.00
45525;BME280;31437;58.350;13.828;2023-03-22T09:31:54;99842.50;;;7.57;100.00
45525;BME280;31437;58.350;13.828;2023-03-22T09:34:19;99839.59;;;7.63;100.00
45525;BME280;31437;58.350;13.828;2023-03-22T09:36:46;99821.16;;;7.66;100.00
45525;BME280;31437;58.350;13.828;2023-03-22T09:39:11;99812.97;;;7.73;100.00
45525;BME280;31437;58.350;13.828;2023-03-22T09:41:40;99808.34;;;7.79;100.00
45525;BME280;31437;58.350;13.828;2023-03-22T09:44:12;99795.88;;;7.85;100.00
45525;BME280;31437;58.350;13.828;2023-03-22T09:46:42;99791.63;;;7.83;100.00
45525;BME280;31437;58.350;13.828;2023-03-22T09:49:15;99785.31;;;7.87;100.00
45525;BME280;31437;58.350;13.828;2023-03-22T09:54:14;99779.59;;;8.15;100.00
45525;BME280;31437;58.350;13.828;2023-03-22T09:56:42;99771.13;;;8.27;100.00
45525;BME280;31437;58.350;13.828;2023-03-22T09:59:21;99767.19;;;8.36;100.00
45525;BME280;31437;58.350;13.828;2023-03-22T10:01:50;99749.50;;;8.41;100.00
45525;BME280;31437;58.350;13.828;2023-03-22T10:06:53;99720.69;;;8.43;100.00
45525;BME280;31437;58.350;13.828;2023-03-22T10:09:48;99704.91;;;8.44;100.00
45525;BME280;31437;58.350;13.828;2023-03-22T10:14:38;99675.09;;;8.31;100.00
45525;BME280;31437;58.350;13.828;2023-03-22T10:17:08;99656.13;;;8.27;100.00
45525;BME280;31437;58.350;13.828;2023-03-22T10:19:39;99647.75;;;8.20;100.00
45525;BME280;31437;58.350;13.828;2023-03-22T10:22:07;99643.72;;;8.15;100.00
45525;BME280;31437;58.350;13.828;2023-03-22T10:24:37;99632.56;;;8.11;100.00
45525;BME280;31437;58.350;13.828;2023-03-22T10:27:09;99620.88;;;8.18;100.00
45525;BME280;31437;58.350;13.828;2023-03-22T10:29:39;99620.47;;;8.26;100.00
45525;BME280;31437;58.350;13.828;2023-03-22T10:32:14;99609.78;;;8.31;100.00
45525;BME280;31437;58.350;13.828;2023-03-22T10:34:40;99606.31;;;8.30;100.00
45525;BME280;31437;58.350;13.828;2023-03-22T10:37:08;99602.00;;;8.29;100.00
45525;BME280;31437;58.350;13.828;2023-03-22T10:39:39;99601.25;;;8.27;100.00
45525;BME280;31437;58.350;13.828;2023-03-22T10:42:12;99589.19;;;8.25;100.00
45525;BME280;31437;58.350;13.828;2023-03-22T10:45:00;99587.44;;;8.25;100.00
45525;BME280;31437;58.350;13.828;2023-03-22T10:47:35;99576.03;;;8.26;100.00
45525;BME280;31437;58.350;13.828;2023-03-22T10:50:03;99580.69;;;8.37;100.00
45525;BME280;31437;58.350;13.828;2023-03-22T10:55:15;99584.09;;;8.55;100.00
45525;BME280;31437;58.350;13.828;2023-03-22T10:57:41;99568.66;;;8.66;100.00
45525;BME280;31437;58.350;13.828;2023-03-22T11:00:07;99552.03;;;8.67;100.00
45525;BME280;31437;58.350;13.828;2023-03-22T11:02:43;99549.69;;;8.62;100.00
45525;BME280;31437;58.350;13.828;2023-03-22T11:05:17;99549.59;;;8.64;100.00
45525;BME280;31437;58.350;13.828;2023-03-22T11:07:43;99540.25;;;8.60;100.00
45525;BME280;31437;58.350;13.828;2023-03-22T11:12:38;99523.72;;;8.44;100.00
45525;BME280;31437;58.350;13.828;2023-03-22T11:15:05;99523.16;;;8.38;100.00
45525;BME280;31437;58.350;13.828;2023-03-22T11:17:30;99517.31;;;8.33;100.00
45525;BME280;31437;58.350;13.828;2023-03-22T11:19:57;99516.63;;;8.30;100.00
45525;BME280;31437;58.350;13.828;2023-03-22T11:24:49;99521.34;;;8.23;100.00
45525;BME280;31437;58.350;13.828;2023-03-22T11:27:27;99528.50;;;8.19;100.00
45525;BME280;31437;58.350;13.828;2023-03-22T11:29:56;99525.38;;;8.13;100.00
45525;BME280;31437;58.350;13.828;2023-03-22T11:32:26;99519.84;;;8.03;100.00
45525;BME280;31437;58.350;13.828;2023-03-22T11:37:41;99531.44;;;7.97;100.00
45525;BME280;31437;58.350;13.828;2023-03-22T11:40:12;99535.66;;;8.00;100.00
45525;BME280;31437;58.350;13.828;2023-03-22T11:42:37;99531.19;;;8.02;100.00
45525;BME280;31437;58.350;13.828;2023-03-22T11:45:03;99535.56;;;8.02;100.00
45525;BME280;31437;58.350;13.828;2023-03-22T11:47:29;99547.88;;;8.00;100.00
45525;BME280;31437;58.350;13.828;2023-03-22T11:49:58;99545.09;;;8.03;100.00
45525;BME280;31437;58.350;13.828;2023-03-22T11:52:27;99539.88;;;8.03;100.00
45525;BME280;31437;58.350;13.828;2023-03-22T11:54:52;99550.31;;;8.03;100.00
45525;BME280;31437;58.350;13.828;2023-03-22T11:57:20;99545.25;;;8.00;100.00
45525;BME280;31437;58.350;13.828;2023-03-22T11:59:57;99544.50;;;7.97;100.00
45525;BME280;31437;58.350;13.828;2023-03-22T12:02:28;99554.25;;;7.94;100.00
45525;BME280;31437;58.350;13.828;2023-03-22T12:05:05;99547.44;;;7.91;100.00
45525;BME280;31437;58.350;13.828;2023-03-22T12:07:31;99550.13;;;7.90;100.00
45525;BME280;31437;58.350;13.828;2023-03-22T12:12:34;99554.41;;;7.91;100.00
45525;BME280;31437;58.350;13.828;2023-03-22T12:15:04;99564.19;;;7.87;100.00
45525;BME280;31437;58.350;13.828;2023-03-22T12:22:46;99549.84;;;7.79;100.00
45525;BME280;31437;58.350;13.828;2023-03-22T12:25:16;99558.78;;;7.74;100.00
45525;BME280;31437;58.350;13.828;2023-03-22T12:27:44;99556.25;;;7.73;100.00
45525;BME280;31437;58.350;13.828;2023-03-22T12:30:15;99553.72;;;7.71;100.00
45525;BME280;31437;58.350;13.828;2023-03-22T12:32:49;99551.13;;;7.71;100.00
45525;BME280;31437;58.350;13.828;2023-03-22T12:35:20;99555.66;;;7.68;100.00
45525;BME280;31437;58.350;13.828;2023-03-22T12:37:50;99553.94;;;7.67;100.00
45525;BME280;31437;58.350;13.828;2023-03-22T12:40:22;99545.44;;;7.63;100.00
45525;BME280;31437;58.350;13.828;2023-03-22T12:45:40;99538.69;;;7.59;100.00
45525;BME280;31437;58.350;13.828;2023-03-22T12:48:18;99538.00;;;7.56;100.00
45525;BME280;31437;58.350;13.828;2023-03-22T12:50:48;99526.72;;;7.55;100.00
45525;BME280;31437;58.350;13.828;2023-03-22T12:53:16;99532.88;;;7.54;100.00
45525;BME280;31437;58.350;13.828;2023-03-22T12:55:43;99535.47;;;7.54;100.00
45525;BME280;31437;58.350;13.828;2023-03-22T12:58:10;99531.19;;;7.53;100.00
45525;BME280;31437;58.350;13.828;2023-03-22T13:03:26;99527.03;;;7.49;100.00
45525;BME280;31437;58.350;13.828;2023-03-22T13:06:01;99530.59;;;7.48;100.00
45525;BME280;31437;58.350;13.828;2023-03-22T13:08:30;99520.38;;;7.43;100.00
45525;BME280;31437;58.350;13.828;2023-03-22T13:11:20;99518.84;;;7.39;100.00
45525;BME280;31437;58.350;13.828;2023-03-22T13:13:46;99509.34;;;7.38;100.00
45525;BME280;31437;58.350;13.828;2023-03-22T13:16:13;99506.81;;;7.37;100.00
45525;BME280;31437;58.350;13.828;2023-03-22T13:18:55;99500.91;;;7.33;100.00
45525;BME280;31437;58.350;13.828;2023-03-22T13:21:26;99502.75;;;7.31;100.00
45525;BME280;31437;58.350;13.828;2023-03-22T13:29:24;99480.84;;;7.18;100.00
45525;BME280;31437;58.350;13.828;2023-03-22T13:34:51;99457.66;;;7.12;100.00
45525;BME280;31437;58.350;13.828;2023-03-22T13:38:02;99457.66;;;7.12;100.00
45525;BME280;31437;58.350;13.828;2023-03-22T13:41:04;99466.34;;;7.12;100.00
45525;BME280;31437;58.350;13.828;2023-03-22T13:43:11;99453.03;;;7.17;100.00
45525;BME280;31437;58.350;13.828;2023-03-22T13:45:37;99438.84;;;7.22;100.00
45525;BME280;31437;58.350;13.828;2023-03-22T13:48:38;99440.63;;;7.22;100.00
45525;BME280;31437;58.350;13.828;2023-03-22T13:59:03;99407.69;;;7.19;100.00
45525;BME280;31437;58.350;13.828;2023-03-22T14:01:35;99410.41;;;7.18;100.00
45525;BME280;31437;58.350;13.828;2023-03-22T14:04:08;99392.81;;;7.21;100.00
45525;BME280;31437;58.350;13.828;2023-03-22T14:09:41;99364.28;;;7.18;100.00
45525;BME280;31437;58.350;13.828;2023-03-22T14:12:17;99384.22;;;7.19;100.00
45525;BME280;31437;58.350;13.828;2023-03-22T14:14:45;99381.72;;;7.18;100.00
45525;BME280;31437;58.350;13.828;2023-03-22T14:17:16;99362.75;;;7.14;100.00
45525;BME280;31437;58.350;13.828;2023-03-22T14:19:45;99354.09;;;7.14;100.00
45525;BME280;31437;58.350;13.828;2023-03-22T14:22:12;99335.66;;;7.17;100.00
45525;BME280;31437;58.350;13.828;2023-03-22T14:24:40;99338.22;;;7.18;100.00
45525;BME280;31437;58.350;13.828;2023-03-22T14:27:05;99329.59;;;7.16;100.00
45525;BME280;31437;58.350;13.828;2023-03-22T14:29:41;99331.38;;;7.16;100.00
45525;BME280;31437;58.350;13.828;2023-03-22T14:32:15;99325.31;;;7.15;100.00
45525;BME280;31437;58.350;13.828;2023-03-22T14:34:41;99317.66;;;7.12;100.00
45525;BME280;31437;58.350;13.828;2023-03-22T14:37:11;99302.34;;;7.06;100.00
45525;BME280;31437;58.350;13.828;2023-03-22T14:39:37;99295.44;;;7.05;100.00
45525;BME280;31437;58.350;13.828;2023-03-22T14:42:13;99279.13;;;7.01;100.00
45525;BME280;31437;58.350;13.828;2023-03-22T14:44:42;99278.28;;;7.01;100.00
45525;BME280;31437;58.350;13.828;2023-03-22T14:47:24;99267.00;;;7.00;100.00
45525;BME280;31437;58.350;13.828;2023-03-22T14:49:53;99263.72;;;6.97;100.00
45525;BME280;31437;58.350;13.828;2023-03-22T14:52:20;99260.25;;;6.96;100.00
45525;BME280;31437;58.350;13.828;2023-03-22T14:54:47;99254.22;;;6.96;100.00
45525;BME280;31437;58.350;13.828;2023-03-22T14:57:13;99247.41;;;6.93;100.00
45525;BME280;31437;58.350;13.828;2023-03-22T14:59:41;99246.66;;;6.91;100.00
45525;BME280;31437;58.350;13.828;2023-03-22T15:02:14;99241.44;;;6.91;100.00
45525;BME280;31437;58.350;13.828;2023-03-22T15:04:43;99249.25;;;6.91;100.00
45525;BME280;31437;58.350;13.828;2023-03-22T15:07:09;99244.97;;;6.90;100.00
45525;BME280;31437;58.350;13.828;2023-03-22T15:09:34;99253.03;;;6.86;100.00
45525;BME280;31437;58.350;13.828;2023-03-22T15:12:01;99253.78;;;6.88;100.00
45525;BME280;31437;58.350;13.828;2023-03-22T15:14:34;99255.56;;;6.87;100.00
45525;BME280;31437;58.350;13.828;2023-03-22T15:17:01;99252.09;;;6.87;100.00
45525;BME280;31437;58.350;13.828;2023-03-22T15:19:32;99260.75;;;6.87;100.00
45525;BME280;31437;58.350;13.828;2023-03-22T15:22:32;99252.16;;;6.85;100.00
45525;BME280;31437;58.350;13.828;2023-03-22T15:24:57;99251.28;;;6.86;100.00
45525;BME280;31437;58.350;13.828;2023-03-22T15:27:23;99234.69;;;6.87;100.00
45525;BME280;31437;58.350;13.828;2023-03-22T15:29:49;99236.47;;;6.87;100.00
45525;BME280;31437;58.350;13.828;2023-03-22T15:32:18;99235.53;;;6.88;100.00
45525;BME280;31437;58.350;13.828;2023-03-22T15:34:45;99236.22;;;6.91;100.00
45525;BME280;31437;58.350;13.828;2023-03-22T15:37:14;99230.06;;;6.92;100.00
45525;BME280;31437;58.350;13.828;2023-03-22T15:39:43;99226.63;;;6.92;100.00
45525;BME280;31437;58.350;13.828;2023-03-22T15:42:18;99226.63;;;6.92;100.00
45525;BME280;31437;58.350;13.828;2023-03-22T15:44:57;99224.88;;;6.92;100.00
45525;BME280;31437;58.350;13.828;2023-03-22T15:47:24;99221.31;;;6.93;100.00
45525;BME280;31437;58.350;13.828;2023-03-22T15:49:52;99223.09;;;6.93;100.00
45525;BME280;31437;58.350;13.828;2023-03-22T15:52:25;99220.31;;;6.96;100.00
45525;BME280;31437;58.350;13.828;2023-03-22T16:02:21;99198.03;;;6.90;100.00
45525;BME280;31437;58.350;13.828;2023-03-22T16:04:49;99192.91;;;6.89;100.00
45525;BME280;31437;58.350;13.828;2023-03-22T16:07:19;99187.09;;;6.83;100.00
45525;BME280;31437;58.350;13.828;2023-03-22T16:09:44;99180.38;;;6.79;100.00
45525;BME280;31437;58.350;13.828;2023-03-22T16:12:11;99183.81;;;6.80;100.00
45525;BME280;31437;58.350;13.828;2023-03-22T16:14:38;99184.06;;;6.75;100.00
45525;BME280;31437;58.350;13.828;2023-03-22T16:17:08;99189.38;;;6.74;100.00
45525;BME280;31437;58.350;13.828;2023-03-22T16:19:35;99186.16;;;6.69;100.00
45525;BME280;31437;58.350;13.828;2023-03-22T16:22:01;99178.50;;;6.66;100.00
45525;BME280;31437;58.350;13.828;2023-03-22T16:24:26;99181.19;;;6.64;100.00
45525;BME280;31437;58.350;13.828;2023-03-22T16:26:51;99175.97;;;6.64;100.00
45525;BME280;31437;58.350;13.828;2023-03-22T16:29:17;99185.72;;;6.60;100.00
45525;BME280;31437;58.350;13.828;2023-03-22T16:31:42;99177.16;;;6.58;100.00
45525;BME280;31437;58.350;13.828;2023-03-22T16:34:08;99173.72;;;6.58;100.00
45525;BME280;31437;58.350;13.828;2023-03-22T16:36:34;99174.72;;;6.55;100.00
45525;BME280;31437;58.350;13.828;2023-03-22T16:38:59;99173.03;;;6.54;100.00
45525;BME280;31437;58.350;13.828;2023-03-22T16:41:26;99173.97;;;6.53;100.00
45525;BME280;31437;58.350;13.828;2023-03-22T16:43:53;99176.63;;;6.52;100.00
45525;BME280;31437;58.350;13.828;2023-03-22T16:46:20;99188.00;;;6.51;100.00
45525;BME280;31437;58.350;13.828;2023-03-22T16:48:45;99196.66;;;6.51;100.00
45525;BME280;31437;58.350;13.828;2023-03-22T16:51:23;99188.06;;;6.49;100.00
45525;BME280;31437;58.350;13.828;2023-03-22T16:53:50;99193.28;;;6.49;100.00
45525;BME280;31437;58.350;13.828;2023-03-22T16:56:19;99194.38;;;6.45;100.00
45525;BME280;31437;58.350;13.828;2023-03-22T16:58:45;99202.97;;;6.47;100.00
45525;BME280;31437;58.350;13.828;2023-03-22T17:01:11;99204.84;;;6.44;100.00
45525;BME280;31437;58.350;13.828;2023-03-22T17:03:37;99200.59;;;6.43;100.00
45525;BME280;31437;58.350;13.828;2023-03-22T17:06:03;99195.44;;;6.41;100.00
45525;BME280;31437;58.350;13.828;2023-03-22T17:08:28;99201.59;;;6.40;100.00
45525;BME280;31437;58.350;13.828;2023-03-22T17:10:54;99202.50;;;6.39;100.00
45525;BME280;31437;58.350;13.828;2023-03-22T17:13:19;99213.00;;;6.37;100.00
45525;BME280;31437;58.350;13.828;2023-03-22T17:15:45;99225.19;;;6.37;100.00
45525;BME280;31437;58.350;13.828;2023-03-22T17:18:12;99237.44;;;6.35;100.00
45525;BME280;31437;58.350;13.828;2023-03-22T17:20:38;99246.13;;;6.35;100.00
45525;BME280;31437;58.350;13.828;2023-03-22T17:23:04;99258.38;;;6.33;100.00
45525;BME280;31437;58.350;13.828;2023-03-22T17:25:32;99264.34;;;6.35;100.00
45525;BME280;31437;58.350;13.828;2023-03-22T17:27:59;99260.97;;;6.33;100.00
45525;BME280;31437;58.350;13.828;2023-03-22T17:30:27;99265.34;;;6.33;100.00